Time;durP1;ratioP1;P1;durP2;ratioP2;P2;SDS_P1;SDS_P2;PMS_P1;PMS_P2;Temp;Humidity;BMP_temperature;BMP_pressure;BME280_temperature;BME280_humidity;BME280_pressure;Samples;Min_cycle;Max_cycle;Signal;HPM_P1;HPM_P2
2023/02/26 00:01:13;;;;;;;15.10;5.40;;;;;;;-0.69;100.00;101813.41;5225951;28;20659;-73
2023/02/26 00:03:48;;;;;;;19.88;4.45;;;;;;;-0.71;100.00;101817.03;5214378;28;20120;-73
2023/02/26 00:06:18;;;;;;;16.05;4.95;;;;;;;-0.74;100.00;101819.81;5226026;28;20017;-73
2023/02/26 00:08:49;;;;;;;17.40;5.38;;;;;;;-0.77;100.00;101817.31;5226124;28;20029;-73
2023/02/26 00:11:21;;;;;;;20.15;5.30;;;;;;;-0.80;100.00;101824.44;5225471;28;20078;-72
2023/02/26 00:13:52;;;;;;;13.40;4.07;;;;;;;-0.77;100.00;101814.69;5226182;28;20017;-73
2023/02/26 00:16:41;;;;;;;18.23;4.50;;;;;;;-0.79;100.00;101823.53;5207926;28;20093;-72
2023/02/26 00:19:11;;;;;;;14.88;5.10;;;;;;;-0.79;100.00;101823.53;5225869;28;20025;-73
2023/02/26 00:21:42;;;;;;;13.60;4.60;;;;;;;-0.81;100.00;101830.63;5225701;28;20028;-73
2023/02/26 00:24:13;;;;;;;11.48;4.18;;;;;;;-0.82;100.00;101831.56;5225873;28;20558;-73
2023/02/26 00:26:43;;;;;;;17.88;4.30;;;;;;;-0.77;100.00;101833.97;5207831;28;20048;-73
2023/02/26 00:29:14;;;;;;;18.08;4.97;;;;;;;-0.83;100.00;101837.75;5224620;28;20037;-73
2023/02/26 00:31:45;;;;;;;21.30;4.78;;;;;;;-0.93;100.00;101844.34;5225656;28;20021;-73
2023/02/26 00:34:16;;;;;;;9.73;4.43;;;;;;;-1.00;100.00;101842.94;5225231;28;20023;-73
2023/02/26 00:37:23;;;;;;;17.15;4.50;;;;;;;-1.07;100.00;101844.09;5225138;28;20078;-73
2023/02/26 00:40:07;;;;;;;13.43;4.38;;;;;;;-1.16;100.00;101840.09;5225566;28;20491;-73
2023/02/26 00:42:38;;;;;;;22.00;4.72;;;;;;;-1.11;100.00;101848.63;5197631;28;20039;-73
2023/02/26 00:45:13;;;;;;;14.80;5.15;;;;;;;-1.05;100.00;101848.41;5225189;28;20029;-73
2023/02/26 00:47:54;;;;;;;20.55;4.70;;;;;;;-1.02;100.00;101849.16;5225144;28;20028;-73
2023/02/26 00:50:26;;;;;;;14.48;4.55;;;;;;;-0.95;100.00;101855.91;5225325;28;20017;-73
2023/02/26 00:53:16;;;;;;;21.83;4.13;;;;;;;-0.94;100.00;101850.56;5225240;28;20032;-73
2023/02/26 00:55:46;;;;;;;27.33;5.68;;;;;;;-0.93;100.00;101848.78;5225333;28;20541;-73
2023/02/26 00:58:17;;;;;;;25.80;5.25;;;;;;;-0.98;100.00;101851.59;5224898;28;20112;-73
2023/02/26 01:00:47;;;;;;;20.88;4.85;;;;;;;-1.02;100.00;101863.19;5225139;28;20128;-73
2023/02/26 01:03:18;;;;;;;19.35;4.60;;;;;;;-1.09;100.00;101864.41;5219549;28;20029;-73
2023/02/26 01:05:49;;;;;;;15.18;4.45;;;;;;;-1.13;100.00;101862.81;5216864;28;20036;-73
2023/02/26 01:08:57;;;;;;;20.60;5.03;;;;;;;-1.18;100.00;101870.06;5224652;28;20083;-73
2023/02/26 01:11:27;;;;;;;24.30;4.53;;;;;;;-1.21;100.00;101868.41;5225220;28;20025;-73
2023/02/26 01:13:58;;;;;;;18.63;5.50;;;;;;;-1.23;100.00;101869.41;5224720;28;20032;-73
2023/02/26 01:16:33;;;;;;;15.82;4.80;;;;;;;-1.26;100.00;101870.38;5224525;28;20025;-73
2023/02/26 01:19:14;;;;;;;15.85;4.95;;;;;;;-1.33;100.00;101868.94;5224822;28;20025;-73
2023/02/26 01:21:52;;;;;;;23.90;5.28;;;;;;;-1.36;100.00;101869.03;5224821;28;20032;-72
2023/02/26 01:24:26;;;;;;;19.20;4.22;;;;;;;-1.34;100.00;101865.44;5224162;28;20025;-73
2023/02/26 01:26:56;;;;;;;9.40;4.07;;;;;;;-1.36;100.00;101862.00;5206641;28;20025;-72
2023/02/26 01:29:27;;;;;;;17.67;4.90;;;;;;;-1.39;100.00;101867.41;5206760;28;20078;-72
2023/02/26 01:32:18;;;;;;;13.15;4.55;;;;;;;-1.45;100.00;101865.03;5206722;28;20063;-73
2023/02/26 01:34:57;;;;;;;17.92;4.70;;;;;;;-1.52;100.00;101862.72;5224124;28;20040;-73
2023/02/26 01:37:49;;;;;;;18.15;5.32;;;;;;;-1.54;100.00;101864.56;5223983;28;20393;-73
2023/02/26 01:40:49;;;;;;;19.38;5.40;;;;;;;-1.53;100.00;101871.53;5223824;28;20024;-73
2023/02/26 01:43:31;;;;;;;16.85;4.80;;;;;;;-1.51;100.00;101873.19;5206336;28;20033;-73
2023/02/26 01:46:39;;;;;;;14.85;4.43;;;;;;;-1.46;100.00;101876.47;5191094;28;20059;-72
2023/02/26 01:49:28;;;;;;;17.83;5.20;;;;;;;-1.39;100.00;101875.31;5212909;28;20036;-72
2023/02/26 01:52:34;;;;;;;19.35;4.80;;;;;;;-1.35;100.00;101876.91;5223968;28;20079;-73
2023/02/26 01:55:05;;;;;;;22.73;4.85;;;;;;;-1.26;100.00;101880.91;5206456;28;20036;-73
2023/02/26 01:57:35;;;;;;;16.17;5.05;;;;;;;-1.22;100.00;101881.63;5223467;28;20028;-72
2023/02/26 02:00:07;;;;;;;16.92;5.00;;;;;;;-1.25;100.00;101880.00;5223492;28;20021;-73
2023/02/26 02:02:38;;;;;;;23.85;5.13;;;;;;;-1.27;100.00;101876.56;5224400;28;20104;-73
2023/02/26 02:05:16;;;;;;;19.10;5.63;;;;;;;-1.28;100.00;101879.28;5210713;28;20036;-73
2023/02/26 02:07:50;;;;;;;10.75;4.05;;;;;;;-1.32;100.00;101876.75;5223743;28;20021;-73
2023/02/26 02:10:21;;;;;;;11.10;4.13;;;;;;;-1.32;100.00;101882.03;5205781;28;20044;-72
2023/02/26 02:13:11;;;;;;;13.23;4.38;;;;;;;-1.24;100.00;101884.34;5223986;28;20633;-73
2023/02/26 02:16:17;;;;;;;18.00;4.72;;;;;;;-1.29;100.00;101890.72;5223952;28;20029;-73
2023/02/26 02:18:53;;;;;;;21.27;4.85;;;;;;;-1.32;100.00;101891.69;5206024;28;20481;-73
2023/02/26 02:21:42;;;;;;;14.38;4.20;;;;;;;-1.28;100.00;101890.66;5206071;28;20029;-73
2023/02/26 02:24:49;;;;;;;12.88;3.80;;;;;;;-1.22;100.00;101900.91;5208612;28;20398;-73
2023/02/26 02:27:50;;;;;;;11.23;4.20;;;;;;;-1.14;100.00;101893.56;5223353;28;20029;-73
2023/02/26 02:30:46;;;;;;;14.55;4.85;;;;;;;-1.05;100.00;101902.84;5223437;28;20071;-73
2023/02/26 02:33:22;;;;;;;12.25;4.25;;;;;;;-1.05;100.00;101902.84;5223626;28;20112;-72
2023/02/26 02:36:01;;;;;;;12.90;4.28;;;;;;;-1.13;100.00;101912.84;5223604;28;20032;-74
2023/02/26 02:38:42;;;;;;;13.63;4.40;;;;;;;-1.21;100.00;101907.03;5223280;28;20524;-73
2023/02/26 02:41:19;;;;;;;14.88;4.53;;;;;;;-1.31;100.00;101907.44;5223397;28;20032;-73
2023/02/26 02:43:51;;;;;;;23.67;4.60;;;;;;;-1.36;100.00;101916.44;5223332;28;20112;-73
2023/02/26 02:46:39;;;;;;;13.05;4.15;;;;;;;-1.38;100.00;101918.28;5223314;28;20481;-73
2023/02/26 02:49:17;;;;;;;11.50;3.65;;;;;;;-1.41;100.00;101926.28;5211752;28;20145;-73
2023/02/26 02:52:09;;;;;;;11.55;3.95;;;;;;;-1.48;100.00;101914.31;5224743;28;20091;-73
2023/02/26 02:54:50;;;;;;;15.27;3.90;;;;;;;-1.55;100.00;101929.50;5227650;28;20503;-73
2023/02/26 02:57:32;;;;;;;12.90;3.55;;;;;;;-1.61;100.00;101927.09;5227660;28;20120;-73
2023/02/26 03:00:09;;;;;;;20.52;4.47;;;;;;;-1.65;100.00;101930.81;5226808;28;20021;-73
2023/02/26 03:03:17;;;;;;;14.50;3.30;;;;;;;-1.68;100.00;101923.88;5210177;28;20112;-73
2023/02/26 03:05:47;;;;;;;15.93;4.38;;;;;;;-1.68;100.00;101925.66;5219093;28;20040;-73
2023/02/26 03:08:23;;;;;;;11.57;3.92;;;;;;;-1.66;100.00;101923.81;5227033;28;20078;-73
2023/02/26 03:10:54;;;;;;;15.10;3.92;;;;;;;-1.65;100.00;101928.16;5209428;28;20021;-73
2023/02/26 03:13:25;;;;;;;13.63;3.30;;;;;;;-1.63;100.00;101937.69;5227812;28;20047;-73
2023/02/26 03:16:24;;;;;;;12.43;3.55;;;;;;;-1.62;100.00;101941.19;5227192;28;20051;-73
2023/02/26 03:19:30;;;;;;;12.00;2.63;;;;;;;-1.60;100.00;101939.38;5227245;28;20017;-73
2023/02/26 03:22:24;;;;;;;11.50;3.42;;;;;;;-1.59;100.00;101944.56;5227294;28;20033;-73
2023/02/26 03:25:03;;;;;;;14.48;3.15;;;;;;;-1.57;100.00;101949.75;5227244;28;20118;-73
2023/02/26 03:27:45;;;;;;;9.23;3.47;;;;;;;-1.55;100.00;101955.84;5227029;28;20066;-73
2023/02/26 03:30:24;;;;;;;21.60;3.55;;;;;;;-1.53;100.00;101950.50;5229194;28;20029;-73
2023/02/26 03:33:13;;;;;;;7.55;2.60;;;;;;;-1.50;100.00;101961.75;5217062;28;20039;-73
2023/02/26 03:36:00;;;;;;;15.75;3.30;;;;;;;-1.46;100.00;101959.84;5209448;28;20086;-73
2023/02/26 03:38:53;;;;;;;12.02;2.88;;;;;;;-1.43;100.00;101971.13;5209195;28;20052;-73
2023/02/26 03:41:32;;;;;;;17.77;3.67;;;;;;;-1.43;100.00;101968.47;5227034;28;20013;-73
2023/02/26 03:44:08;;;;;;;11.40;2.78;;;;;;;-1.43;100.00;101973.75;5226385;28;20017;-73
2023/02/26 03:46:44;;;;;;;12.05;2.80;;;;;;;-1.44;100.00;101974.69;5226725;28;20568;-73
2023/02/26 03:49:20;;;;;;;12.70;2.80;;;;;;;-1.44;100.00;101981.72;5209232;28;20029;-73
2023/02/26 03:51:52;;;;;;;17.85;3.42;;;;;;;-1.46;100.00;101978.28;5226501;28;20029;-73
2023/02/26 03:54:45;;;;;;;11.00;3.10;;;;;;;-1.48;100.00;101980.97;5226511;28;20388;-73
2023/02/26 03:57:15;;;;;;;13.77;2.63;;;;;;;-1.51;100.00;101986.34;5212983;28;20040;-73
2023/02/26 03:59:46;;;;;;;13.63;3.25;;;;;;;-1.51;100.00;101986.34;5226122;28;20393;-73
2023/02/26 04:02:21;;;;;;;13.32;2.67;;;;;;;-1.52;100.00;101989.03;5208918;28;20033;-73
2023/02/26 04:05:00;;;;;;;5.97;2.30;;;;;;;-1.54;100.00;101996.16;5226117;28;20485;-73
2023/02/26 04:07:31;;;;;;;10.73;2.25;;;;;;;-1.55;100.00;101991.81;5226289;28;20096;-73
2023/02/26 04:10:02;;;;;;;7.68;2.42;;;;;;;-1.59;100.00;101999.81;5226293;28;20105;-73
2023/02/26 04:12:33;;;;;;;14.23;2.70;;;;;;;-1.60;100.00;102013.06;5226409;28;20032;-73
2023/02/26 04:15:05;;;;;;;11.63;2.33;;;;;;;-1.65;100.00;102004.47;5208499;28;20094;-73
2023/02/26 04:17:36;;;;;;;5.30;2.40;;;;;;;-1.64;100.00;102011.44;5226010;28;20032;-73
2023/02/26 04:20:08;;;;;;;8.38;2.50;;;;;;;-1.64;100.00;102007.03;5226312;28;20401;-73
2023/02/26 04:22:39;;;;;;;13.52;2.70;;;;;;;-1.62;100.00;102015.72;5208311;28;20075;-73
2023/02/26 04:25:10;;;;;;;10.68;2.35;;;;;;;-1.62;100.00;102013.09;5226131;28;20032;-73
2023/02/26 04:27:41;;;;;;;8.13;2.28;;;;;;;-1.64;100.00;102033.34;5224992;28;20033;-73
2023/02/26 04:30:12;;;;;;;10.85;2.40;;;;;;;-1.63;100.00;102034.22;5225683;28;20917;-73
2023/02/26 04:32:42;;;;;;;10.18;2.13;;;;;;;-1.65;100.00;102031.66;5225866;28;20028;-73
2023/02/26 04:35:13;;;;;;;10.27;2.53;;;;;;;-1.68;100.00;102031.75;5225647;28;20013;-73
2023/02/26 04:37:43;;;;;;;8.93;2.22;;;;;;;-1.71;100.00;102036.25;5225922;28;20028;-73
2023/02/26 04:40:14;;;;;;;13.30;2.97;;;;;;;-1.75;100.00;102047.84;5225401;28;20020;-73
2023/02/26 04:42:44;;;;;;;12.10;2.90;;;;;;;-1.82;100.00;102044.56;5208468;28;20044;-73
2023/02/26 04:45:18;;;;;;;18.48;5.22;;;;;;;-1.88;100.00;102045.66;5225526;28;20057;-73
2023/02/26 04:47:48;;;;;;;10.75;2.45;;;;;;;-1.92;100.00;102051.94;5225359;28;20052;-73
2023/02/26 04:50:19;;;;;;;8.60;1.80;;;;;;;-1.95;100.00;102049.44;5225397;28;20470;-73
2023/02/26 04:52:50;;;;;;;13.48;3.25;;;;;;;-1.95;100.00;102046.81;5207572;28;20033;-73
2023/02/26 04:55:20;;;;;;;10.38;2.13;;;;;;;-1.95;100.00;102057.34;5207775;28;20021;-73
2023/02/26 04:57:51;;;;;;;6.20;2.72;;;;;;;-1.97;100.00;102059.16;5224981;28;20051;-73
2023/02/26 05:00:22;;;;;;;12.65;3.05;;;;;;;-1.98;100.00;102061.84;5208746;28;20116;-73
2023/02/26 05:02:52;;;;;;;11.77;2.80;;;;;;;-2.02;100.00;102068.97;5224545;28;20096;-73
2023/02/26 05:05:23;;;;;;;8.15;2.42;;;;;;;-2.03;100.00;102069.03;5213682;28;20111;-73
2023/02/26 05:07:55;;;;;;;6.18;2.10;;;;;;;-2.06;100.00;102072.63;5225219;28;20033;-73
2023/02/26 05:10:26;;;;;;;8.43;2.28;;;;;;;-2.09;100.00;102070.13;5225379;28;20028;-73
2023/02/26 05:12:56;;;;;;;7.95;2.45;;;;;;;-2.09;100.00;102075.38;5225293;28;20021;-74
2023/02/26 05:15:27;;;;;;;8.32;2.30;;;;;;;-2.12;100.00;102063.19;5224530;28;20485;-73
2023/02/26 05:17:57;;;;;;;8.23;1.92;;;;;;;-2.14;100.00;102070.28;5206966;28;20174;-73
2023/02/26 05:20:28;;;;;;;17.23;2.45;;;;;;;-2.15;100.00;102086.97;5224909;28;20028;-73
2023/02/26 05:22:58;;;;;;;7.97;1.80;;;;;;;-2.17;100.00;102077.41;5207449;28;20032;-73
2023/02/26 05:25:29;;;;;;;16.08;2.20;;;;;;;-2.19;100.00;102088.00;5224837;28;20393;-73
2023/02/26 05:27:59;;;;;;;18.27;2.75;;;;;;;-2.23;100.00;102094.28;5224325;28;20060;-73
2023/02/26 05:30:30;;;;;;;6.25;2.42;;;;;;;-2.24;100.00;102092.56;5224651;28;20021;-73
2023/02/26 05:33:00;;;;;;;10.38;2.03;;;;;;;-2.25;100.00;102093.47;5224913;28;20040;-73
2023/02/26 05:35:31;;;;;;;6.63;1.90;;;;;;;-2.25;100.00;102104.00;5224627;28;20504;-73
2023/02/26 05:38:01;;;;;;;11.20;2.10;;;;;;;-2.25;100.00;102105.75;5224503;28;20032;-73
2023/02/26 05:40:32;;;;;;;15.77;2.22;;;;;;;-2.26;100.00;102110.16;5224177;28;20017;-73
2023/02/26 05:43:02;;;;;;;14.00;2.60;;;;;;;-2.27;100.00;102111.06;5224723;28;20025;-73
2023/02/26 05:45:32;;;;;;;10.60;2.20;;;;;;;-2.29;100.00;102118.16;5224837;28;20028;-73
2023/02/26 05:48:03;;;;;;;8.15;1.92;;;;;;;-2.30;100.00;102116.44;5224395;28;20033;-73
2023/02/26 05:50:34;;;;;;;10.05;1.92;;;;;;;-2.32;100.00;102114.75;5224425;28;20486;-73
2023/02/26 05:53:04;;;;;;;9.23;3.40;;;;;;;-2.38;100.00;102116.69;5224211;28;20043;-73
2023/02/26 05:55:35;;;;;;;16.35;3.00;;;;;;;-2.39;100.00;102117.59;5224718;28;20021;-73
2023/02/26 05:58:05;;;;;;;10.25;2.25;;;;;;;-2.38;100.00;102121.94;5223838;28;20021;-73
2023/02/26 06:00:36;;;;;;;6.63;2.20;;;;;;;-2.40;100.00;102134.28;5206787;28;20029;-73
2023/02/26 06:03:06;;;;;;;18.17;2.65;;;;;;;-2.42;100.00;102132.59;5206324;28;20386;-73
2023/02/26 06:05:37;;;;;;;11.13;2.40;;;;;;;-2.45;100.00;102136.22;5224289;28;20095;-73
2023/02/26 06:08:07;;;;;;;10.57;2.03;;;;;;;-2.47;100.00;102135.38;5206397;28;20481;-73
2023/02/26 06:10:38;;;;;;;13.15;2.00;;;;;;;-2.48;100.00;102141.56;5225028;28;20085;-73
2023/02/26 06:13:08;;;;;;;5.93;1.60;;;;;;;-2.49;100.00;102142.47;5224262;28;20032;-73
2023/02/26 06:15:39;;;;;;;7.13;2.22;;;;;;;-2.48;100.00;102145.97;5224032;28;20078;-73
2023/02/26 06:18:09;;;;;;;9.65;1.88;;;;;;;-2.53;100.00;102151.38;5223435;28;20025;-73
2023/02/26 06:20:40;;;;;;;5.95;2.13;;;;;;;-2.55;100.00;102147.94;5223941;28;20029;-74
2023/02/26 06:23:10;;;;;;;8.43;2.60;;;;;;;-2.59;100.00;102158.59;5223885;28;20033;-74
2023/02/26 06:25:41;;;;;;;7.57;1.52;;;;;;;-2.59;100.00;102161.22;5224117;28;20024;-73
2023/02/26 06:28:11;;;;;;;8.20;1.70;;;;;;;-2.52;100.00;102168.84;5223967;28;20432;-73
2023/02/26 06:30:44;;;;;;;8.30;1.92;;;;;;;-2.52;100.00;102174.09;5223825;28;20090;-74
2023/02/26 06:33:14;;;;;;;3.35;1.52;;;;;;;-2.53;100.00;102174.16;5206471;28;20048;-73
2023/02/26 06:35:45;;;;;;;5.28;1.73;;;;;;;-2.56;100.00;102188.28;5223789;28;20511;-73
2023/02/26 06:38:15;;;;;;;14.02;1.98;;;;;;;-2.58;100.00;102184.81;5223695;28;20377;-73
2023/02/26 06:40:46;;;;;;;7.00;1.63;;;;;;;-2.58;100.00;102189.22;5223628;28;20032;-73
2023/02/26 06:43:17;;;;;;;7.10;1.48;;;;;;;-2.59;100.00;102188.34;5205872;28;20112;-73
2023/02/26 06:45:48;;;;;;;11.25;1.38;;;;;;;-2.59;100.00;102198.00;5224154;28;20390;-73
2023/02/26 06:48:18;;;;;;;10.52;2.00;;;;;;;-2.59;100.00;102206.75;5205985;28;20497;-73
2023/02/26 06:50:49;;;;;;;6.75;1.63;;;;;;;-2.57;100.00;102197.03;5223866;28;20115;-73
2023/02/26 06:53:19;;;;;;;5.15;1.55;;;;;;;-2.54;100.00;102201.34;5205629;28;20107;-73
2023/02/26 06:55:51;;;;;;;7.97;1.90;;;;;;;-2.48;100.00;102206.41;5223911;28;20033;-73
2023/02/26 06:58:23;;;;;;;8.85;1.50;;;;;;;-2.42;100.00;102208.81;5223016;28;20452;-73
2023/02/26 07:00:53;;;;;;;7.68;1.73;;;;;;;-2.32;100.00;102212.00;5224049;28;20083;-73
2023/02/26 07:03:24;;;;;;;6.65;1.50;;;;;;;-2.25;100.00;102203.91;5217435;28;20398;-73
2023/02/26 07:05:55;;;;;;;6.13;1.48;;;;;;;-2.16;100.00;102208.84;5216000;28;20091;-73
2023/02/26 07:08:25;;;;;;;9.65;1.83;;;;;;;-2.05;100.00;102208.47;5205697;28;20507;-73
2023/02/26 07:10:56;;;;;;;8.57;1.60;;;;;;;-1.93;100.00;102215.94;5210039;28;20032;-74
2023/02/26 07:13:26;;;;;;;12.27;1.85;;;;;;;-1.78;100.00;102225.06;5205947;28;20100;-73
2023/02/26 07:15:57;;;;;;;5.00;1.48;;;;;;;-1.67;100.00;102225.56;5223464;28;20024;-73
2023/02/26 07:18:27;;;;;;;3.70;1.25;;;;;;;-1.38;100.00;102227.16;5205176;28;20103;-73
2023/02/26 07:20:58;;;;;;;3.35;1.33;;;;;;;-1.08;100.00;102226.94;5205610;28;20023;-73
2023/02/26 07:23:29;;;;;;;7.03;1.60;;;;;;;-0.87;100.00;102241.91;5223421;28;20026;-73
2023/02/26 07:26:01;;;;;;;6.57;1.60;;;;;;;-0.61;100.00;102240.03;5223683;28;20021;-73
2023/02/26 07:28:31;;;;;;;7.07;1.42;;;;;;;-0.35;100.00;102244.25;5223155;28;20116;-74
2023/02/26 07:31:02;;;;;;;10.70;1.48;;;;;;;-0.10;100.00;102241.47;5205161;28;20104;-74
2023/02/26 07:33:33;;;;;;;4.75;1.27;;;;;;;0.07;100.00;102246.06;5223521;28;20074;-74
2023/02/26 07:36:05;;;;;;;6.75;1.80;;;;;;;0.15;100.00;102260.69;5205591;28;20025;-74
2023/02/26 07:38:35;;;;;;;4.75;1.42;;;;;;;0.23;100.00;102260.34;5225978;28;20708;-73
2023/02/26 07:41:06;;;;;;;11.02;1.85;;;;;;;0.30;100.00;102259.13;5227240;28;20013;-74
2023/02/26 07:43:37;;;;;;;8.27;1.55;;;;;;;0.40;100.00;102264.88;5226684;28;20025;-74
2023/02/26 07:46:07;;;;;;;5.40;1.42;;;;;;;0.56;100.00;102273.03;5209405;28;20104;-74
2023/02/26 07:48:40;;;;;;;7.10;1.30;;;;;;;0.71;100.00;102280.28;5226613;28;20552;-74
2023/02/26 07:51:10;;;;;;;12.25;1.40;;;;;;;0.94;100.00;102290.66;5227051;28;20051;-74
2023/02/26 07:53:43;;;;;;;11.05;1.52;;;;;;;1.49;100.00;102282.81;5226955;28;20032;-74
2023/02/26 07:56:13;;;;;;;6.95;2.15;;;;;;;1.94;100.00;102280.66;5227058;28;20055;-74
2023/02/26 07:58:44;;;;;;;11.10;2.00;;;;;;;2.36;100.00;102288.28;5225551;28;20028;-74
2023/02/26 08:01:15;;;;;;;10.65;2.75;;;;;;;2.71;100.00;102293.50;5209039;28;20440;-74
2023/02/26 08:03:45;;;;;;;5.95;1.65;;;;;;;2.96;100.00;102293.06;5226636;28;20029;-74
2023/02/26 08:06:16;;;;;;;5.68;1.48;;;;;;;3.34;100.00;102293.66;5226113;28;20515;-74
2023/02/26 08:08:46;;;;;;;9.55;1.48;;;;;;;3.58;100.00;102296.75;5226793;28;20028;-74
2023/02/26 08:11:17;;;;;;;4.20;1.67;;;;;;;3.74;100.00;102294.09;5226474;28;20140;-74
2023/02/26 08:13:47;;;;;;;3.35;1.38;;;;;;;3.92;100.00;102298.38;5226792;28;20024;-75
2023/02/26 08:16:18;;;;;;;4.03;1.40;;;;;;;4.14;100.00;102295.31;5192534;28;20021;-74
2023/02/26 08:18:48;;;;;;;5.93;1.25;;;;;;;4.18;100.00;102299.53;5226661;28;20754;-74
2023/02/26 08:21:19;;;;;;;7.07;1.58;;;;;;;4.40;100.00;102297.28;5208660;28;20056;-74
2023/02/26 08:23:51;;;;;;;8.38;1.45;;;;;;;4.58;100.00;102298.00;5226233;28;20021;-75
2023/02/26 08:26:21;;;;;;;5.82;1.10;;;;;;;4.73;100.00;102298.03;5226173;28;20063;-74
2023/02/26 08:28:52;;;;;;;4.30;1.25;;;;;;;4.62;100.00;102312.00;5226299;28;20036;-74
2023/02/26 08:31:23;;;;;;;5.18;1.00;;;;;;;4.76;100.00;102311.97;5226176;28;20029;-74
2023/02/26 08:33:54;;;;;;;8.38;1.20;;;;;;;4.97;100.00;102315.16;5226136;28;20017;-74
2023/02/26 08:36:25;;;;;;;7.90;1.00;;;;;;;4.74;100.00;102321.03;5225817;28;20025;-74
2023/02/26 08:38:57;;;;;;;3.70;0.88;;;;;;;4.91;100.00;102318.19;5226121;28;20028;-74
2023/02/26 08:41:29;;;;;;;3.10;1.20;;;;;;;5.00;100.00;102327.41;5208300;28;20485;-74
2023/02/26 08:44:00;;;;;;;3.20;0.75;;;;;;;5.03;100.00;102332.56;5225312;28;20025;-74
2023/02/26 08:46:30;;;;;;;6.28;1.15;;;;;;;5.23;100.00;102339.31;5207809;28;20021;-74
2023/02/26 08:49:01;;;;;;;5.07;1.50;;;;;;;4.82;100.00;102342.66;5224725;28;20111;-75
2023/02/26 08:51:31;;;;;;;5.55;1.00;;;;;;;4.99;100.00;102344.31;5225570;28;20021;-75
2023/02/26 08:54:02;;;;;;;3.60;1.00;;;;;;;5.11;100.00;102338.22;5226480;28;20077;-75
2023/02/26 08:56:32;;;;;;;2.67;1.13;;;;;;;5.10;100.00;102350.69;5207568;28;20115;-75
2023/02/26 08:59:03;;;;;;;2.70;1.00;;;;;;;5.50;100.00;102355.34;5225849;28;20489;-75
2023/02/26 09:01:33;;;;;;;4.10;0.90;;;;;;;5.32;100.00;102368.88;5225822;28;20112;-75
2023/02/26 09:04:04;;;;;;;6.93;1.10;;;;;;;5.04;100.00;102360.84;5225850;28;20444;-75
2023/02/26 09:06:35;;;;;;;2.30;0.93;;;;;;;5.24;100.00;102367.63;5225299;28;20029;-75
2023/02/26 09:09:05;;;;;;;7.43;1.25;;;;;;;5.21;100.00;102368.66;5225691;28;20409;-75
2023/02/26 09:11:39;;;;;;;3.08;1.02;;;;;;;5.38;100.00;102381.78;5226070;28;20456;-75
2023/02/26 09:14:10;;;;;;;4.13;0.98;;;;;;;5.59;100.00;102373.41;5210074;28;20078;-75
2023/02/26 09:16:41;;;;;;;1.48;0.80;;;;;;;5.27;100.00;102381.59;5226746;28;20415;-75
2023/02/26 09:19:11;;;;;;;5.75;0.90;;;;;;;5.46;100.00;102384.78;5225809;28;20071;-75
2023/02/26 09:21:43;;;;;;;7.40;1.50;;;;;;;5.74;100.00;102385.75;5226133;28;20033;-75
2023/02/26 09:24:14;;;;;;;3.47;1.00;;;;;;;5.86;100.00;102387.59;5207612;28;20021;-75
2023/02/26 09:26:44;;;;;;;4.35;1.13;;;;;;;5.93;100.00;102394.31;5224833;28;20029;-75
2023/02/26 09:29:15;;;;;;;6.15;1.10;;;;;;;5.85;100.00;102403.69;5225177;28;20025;-75
2023/02/26 09:31:45;;;;;;;3.20;1.20;;;;;;;6.14;100.00;102399.19;5224759;28;20020;-75
2023/02/26 09:34:16;;;;;;;4.43;1.10;;;;;;;6.26;100.00;102402.88;5224913;28;20039;-75
2023/02/26 09:36:46;;;;;;;7.57;1.77;;;;;;;6.40;100.00;102405.47;5224338;28;20036;-75
2023/02/26 09:39:17;;;;;;;6.65;1.15;;;;;;;6.18;100.00;102403.38;5207321;28;20075;-75
2023/02/26 09:41:51;;;;;;;6.70;0.88;;;;;;;6.03;100.00;102399.91;5224951;28;20020;-75
2023/02/26 09:44:25;;;;;;;6.25;1.30;;;;;;;5.88;100.00;102417.69;5224645;28;20025;-75
2023/02/26 09:47:17;;;;;;;6.65;1.30;;;;;;;5.77;100.00;102414.81;5224570;28;20025;-74
2023/02/26 09:50:25;;;;;;;3.67;0.85;;;;;;;5.82;100.00;102422.53;5224480;28;20096;-75
2023/02/26 09:53:08;;;;;;;7.43;1.10;;;;;;;6.13;100.00;102422.34;5224513;28;20024;-75
2023/02/26 09:55:44;;;;;;;5.03;1.10;;;;;;;6.17;100.00;102422.97;5212801;28;20028;-75
2023/02/26 09:58:36;;;;;;;3.55;0.90;;;;;;;6.22;100.00;102432.41;5223782;28;20070;-75
2023/02/26 10:01:28;;;;;;;8.05;1.55;;;;;;;6.35;100.00;102427.09;5223502;28;20394;-75
2023/02/26 10:04:23;;;;;;;5.60;0.98;;;;;;;6.34;100.00;102429.88;5224368;28;20025;-75
2023/02/26 10:07:29;;;;;;;6.47;1.02;;;;;;;5.88;100.00;102433.66;5210982;28;20017;-74
2023/02/26 10:10:22;;;;;;;6.05;0.95;;;;;;;5.32;100.00;102439.81;5224168;28;20078;-75
2023/02/26 10:12:52;;;;;;;3.38;0.95;;;;;;;4.82;100.00;102441.94;5224293;28;20033;-75
2023/02/26 10:15:45;;;;;;;2.25;0.85;;;;;;;4.37;100.00;102443.66;5224170;28;20032;-75
2023/02/26 10:18:24;;;;;;;3.65;0.85;;;;;;;4.39;100.00;102439.09;5210389;28;20064;-75
2023/02/26 10:21:02;;;;;;;3.83;0.70;;;;;;;4.48;100.00;102447.50;5224091;28;20025;-75
2023/02/26 10:23:44;;;;;;;4.75;1.00;;;;;;;4.09;100.00;102446.13;5224124;28;20035;-74
2023/02/26 10:26:16;;;;;;;5.43;1.38;;;;;;;3.75;100.00;102441.81;5206175;28;20036;-75
2023/02/26 10:29:08;;;;;;;2.30;0.60;;;;;;;3.82;100.00;102443.22;5205726;28;20067;-75
2023/02/26 10:32:12;;;;;;;3.38;0.80;;;;;;;3.66;100.00;102442.28;5223974;28;20032;-74
2023/02/26 10:34:55;;;;;;;2.28;0.60;;;;;;;3.66;100.00;102459.06;5213084;28;20031;-75
2023/02/26 10:37:43;;;;;;;6.25;0.40;;;;;;;3.49;100.00;102453.81;5223479;28;20031;-75
2023/02/26 10:40:22;;;;;;;2.22;0.70;;;;;;;3.29;100.00;102453.06;5223923;28;20051;-74
2023/02/26 10:42:59;;;;;;;2.10;0.50;;;;;;;3.10;100.00;102449.66;5206023;28;20028;-74
2023/02/26 10:45:52;;;;;;;5.15;0.93;;;;;;;2.89;100.00;102470.16;5223637;28;20053;-74
2023/02/26 10:49:01;;;;;;;2.92;0.82;;;;;;;3.08;100.00;102454.19;5223455;28;20031;-74
2023/02/26 10:51:35;;;;;;;2.38;0.65;;;;;;;3.62;100.00;102470.81;5223401;28;20108;-75
2023/02/26 10:54:39;;;;;;;2.38;0.70;;;;;;;3.56;100.00;102469.31;5206147;28;20025;-74
2023/02/26 11:00:20;;;;;;;3.58;1.30;;;;;;;3.66;100.00;102467.03;5222798;28;20047;-75
2023/02/26 11:02:53;;;;;;;7.28;1.08;;;;;;;4.01;100.00;102459.81;5222413;28;20061;-74
2023/02/26 11:05:27;;;;;;;5.15;0.90;;;;;;;4.15;100.00;102469.69;5211912;28;20029;-74
2023/02/26 11:08:03;;;;;;;6.27;1.00;;;;;;;4.28;100.00;102478.69;5223438;28;20125;-74
2023/02/26 11:10:41;;;;;;;3.55;0.77;;;;;;;4.07;100.00;102474.59;5205847;28;20124;-74
2023/02/26 11:13:11;;;;;;;4.00;0.90;;;;;;;3.94;100.00;102468.22;5225734;28;20037;-75
2023/02/26 11:15:46;;;;;;;3.75;0.73;;;;;;;3.89;100.00;102479.94;5227384;28;20025;-74
2023/02/26 11:18:22;;;;;;;1.77;0.77;;;;;;;3.73;100.00;102468.44;5227259;28;20497;-74
2023/02/26 11:20:56;;;;;;;2.75;0.80;;;;;;;4.08;100.00;102477.16;5227383;28;20104;-76
2023/02/26 11:23:30;;;;;;;2.25;0.70;;;;;;;4.33;100.00;102483.75;5227292;28;20043;-74
2023/02/26 11:26:05;;;;;;;4.70;0.70;;;;;;;4.60;100.00;102468.88;5227302;28;20116;-75
2023/02/26 11:28:44;;;;;;;6.50;1.00;;;;;;;4.49;100.00;102481.94;5226409;28;20031;-74
2023/02/26 11:31:23;;;;;;;5.15;0.88;;;;;;;4.26;100.00;102479.72;5227251;28;20028;-74
2023/02/26 11:34:01;;;;;;;8.45;1.65;;;;;;;4.13;100.00;102490.19;5227210;28;20025;-74
2023/02/26 11:36:36;;;;;;;1.98;0.57;;;;;;;3.67;100.00;102479.41;5226874;28;20402;-75
2023/02/26 11:39:25;;;;;;;3.60;0.75;;;;;;;3.56;100.00;102484.38;5208911;28;20032;-74
2023/02/26 11:41:59;;;;;;;2.90;1.20;;;;;;;3.75;100.00;102485.13;5209397;28;20036;-74
2023/02/26 11:44:36;;;;;;;2.10;1.08;;;;;;;4.15;100.00;102482.97;5227032;28;20194;-75
2023/02/26 11:47:13;;;;;;;6.03;1.10;;;;;;;4.27;100.00;102492.94;5226043;28;20074;-75
2023/02/26 11:49:50;;;;;;;6.88;0.95;;;;;;;4.39;100.00;102494.88;5226639;28;20017;-75
2023/02/26 11:52:28;;;;;;;5.43;1.52;;;;;;;4.52;100.00;102492.41;5209271;28;20029;-75
2023/02/26 11:55:03;;;;;;;3.55;0.82;;;;;;;4.90;100.00;102487.53;5226781;28;20108;-74
2023/02/26 11:57:33;;;;;;;5.50;0.88;;;;;;;4.89;100.00;102484.97;5226140;28;20021;-74
2023/02/26 12:00:18;;;;;;;1.73;0.60;;;;;;;4.83;100.00;102486.19;5208837;28;20025;-75